Terminal Aerodrome Forecast
Issued by NWS

Home | Current Version | Previous Version | Graphics & Text | Print | Product List | Glossary On
Versions: 1 2 3 4 5 6 7 8 9 10 11 12 13 14 15 16
000
FTUS43 KABR 201700
TAFATY
TAF
KATY 201720Z 2018/2118 16009KT P6SM SKC
     FM210000 13007KT P6SM VCSH SCT080
     FM211500 33016KT P6SM SKC=

USA.gov is the U.S. government's official web portal to all federal, state and local government web resources and services.